Time;durP1;ratioP1;P1;durP2;ratioP2;P2;SDS_P1;SDS_P2;PMS_P1;PMS_P2;Temp;Humidity;BMP_temperature;BMP_pressure;BME280_temperature;BME280_humidity;BME280_pressure;Samples;Min_cycle;Max_cycle;Signal;HPM_P1;HPM_P2
2022/08/06 00:02:24;;;;;;;2.72;1.65;;;20.70;81.00;;;20.17;100.00;96355.56;4944228;28;20081;-66
2022/08/06 00:04:50;;;;;;;3.45;2.60;;;20.60;81.30;;;20.14;100.00;96359.53;4927439;28;20051;-66
2022/08/06 00:07:16;;;;;;;5.45;3.47;;;20.60;81.50;;;20.10;100.00;96361.06;4943061;28;20566;-66
2022/08/06 00:09:42;;;;;;;2.80;2.55;;;20.60;81.50;;;20.06;100.00;96365.25;4939863;28;20031;-66
2022/08/06 00:12:08;;;;;;;4.55;2.92;;;20.70;81.60;;;20.04;100.00;96370.03;4960887;28;20058;-66
2022/08/06 00:14:34;;;;;;;5.60;3.22;;;20.60;81.70;;;20.01;100.00;96369.72;4958762;28;20089;-65
2022/08/06 00:17:00;;;;;;;4.95;3.00;;;20.60;81.80;;;19.99;100.00;96372.63;4925357;28;20144;-65
2022/08/06 00:19:26;;;;;;;4.85;3.28;;;20.60;81.70;;;19.96;100.00;96370.44;4926578;29;20047;-66
2022/08/06 00:21:52;;;;;;;5.60;4.30;;;20.50;81.80;;;19.87;100.00;96382.56;4929924;28;20038;-66
2022/08/06 00:24:18;;;;;;;6.65;5.25;;;20.40;82.50;;;19.79;100.00;96386.44;4948971;28;20058;-66
2022/08/06 00:26:43;;;;;;;5.75;4.10;;;20.10;82.70;;;19.70;100.00;96379.06;4931835;28;20059;-67
2022/08/06 00:29:09;;;;;;;8.52;4.40;;;20.10;82.90;;;19.64;100.00;96391.47;4946538;28;20117;-65
2022/08/06 00:31:35;;;;;;;5.00;3.75;;;20.10;83.30;;;19.61;100.00;96386.63;4931189;28;20525;-66
2022/08/06 00:34:02;;;;;;;5.28;3.28;;;20.10;83.00;;;19.60;100.00;96394.88;4946660;28;20515;-66
2022/08/06 00:36:28;;;;;;;5.32;3.55;;;20.10;82.90;;;19.61;100.00;96396.50;4946798;28;20483;-66
2022/08/06 00:38:54;;;;;;;4.93;3.03;;;20.10;82.70;;;19.60;100.00;96389.53;4930920;28;20039;-66
2022/08/06 00:41:20;;;;;;;5.55;3.55;;;20.10;82.80;;;19.60;100.00;96389.53;4948097;28;20130;-66
2022/08/06 00:43:46;;;;;;;5.68;3.35;;;20.20;82.70;;;19.57;100.00;96386.31;4932649;28;20109;-67
2022/08/06 00:46:12;;;;;;;4.57;3.65;;;20.20;82.50;;;19.58;100.00;96379.91;4945601;28;20043;-66
2022/08/06 00:48:37;;;;;;;4.00;2.80;;;20.30;82.10;;;19.60;100.00;96384.19;4932136;28;20100;-67
2022/08/06 00:51:03;;;;;;;4.18;2.83;;;20.20;81.90;;;19.62;100.00;96388.25;4945935;28;20125;-66
2022/08/06 00:53:29;;;;;;;4.45;3.13;;;20.30;81.90;;;19.63;100.00;96391.72;4949028;28;20070;-66
2022/08/06 00:55:55;;;;;;;4.18;3.13;;;20.40;82.20;;;19.66;100.00;96381.38;4946995;28;20523;-66
2022/08/06 00:58:21;;;;;;;5.85;3.30;;;20.40;81.90;;;19.70;100.00;96390.56;4942592;28;20052;-66
2022/08/06 01:00:46;;;;;;;3.58;2.97;;;20.50;81.50;;;19.73;100.00;96391.94;4944969;28;20537;-65
2022/08/06 01:03:16;;;;;;;4.20;3.30;;;20.60;81.30;;;19.75;100.00;96387.97;4961918;28;20046;-66
2022/08/06 01:05:45;;;;;;;4.00;2.80;;;20.50;81.40;;;19.81;100.00;96394.19;4945024;28;20150;-66
2022/08/06 01:08:11;;;;;;;4.43;2.88;;;20.60;81.40;;;19.82;100.00;96395.81;4948245;28;20054;-67
2022/08/06 01:10:37;;;;;;;5.65;3.45;;;20.50;81.40;;;19.80;100.00;96384.56;4911796;28;20031;-66
2022/08/06 01:13:03;;;;;;;5.28;3.05;;;20.50;81.30;;;19.79;100.00;96381.09;4931036;28;20147;-66
2022/08/06 01:15:28;;;;;;;5.32;2.92;;;20.60;81.40;;;19.79;100.00;96374.94;4941677;28;20495;-66
2022/08/06 01:18:08;;;;;;;6.05;3.20;;;20.50;81.50;;;19.73;100.00;96381.25;4944147;28;20098;-66
2022/08/06 01:21:11;;;;;;;5.30;3.25;;;20.30;81.70;;;19.65;100.00;96382.44;4944735;28;20038;-66
2022/08/06 01:24:15;;;;;;;5.50;3.65;;;20.20;82.40;;;19.62;100.00;96377.56;4948312;28;20062;-66
2022/08/06 01:26:50;;;;;;;6.40;3.53;;;20.20;82.90;;;19.57;100.00;96380.97;4960549;28;20114;-67
2022/08/06 01:29:27;;;;;;;5.13;3.33;;;20.20;82.90;;;19.56;100.00;96383.88;4912327;28;20038;-66
2022/08/06 01:32:07;;;;;;;7.20;3.50;;;20.20;83.00;;;19.56;100.00;96384.69;4929297;28;20039;-67
2022/08/06 01:34:42;;;;;;;4.82;3.67;;;20.20;83.20;;;19.60;100.00;96378.88;4929855;28;20031;-66
2022/08/06 01:37:21;;;;;;;4.72;3.40;;;20.30;83.00;;;19.57;100.00;96375.63;4931437;28;20132;-66
2022/08/06 01:39:49;;;;;;;6.30;3.85;;;20.20;83.10;;;19.58;100.00;96371.91;4929441;28;20441;-66
2022/08/06 01:42:14;;;;;;;6.20;3.78;;;20.30;83.00;;;19.57;100.00;96366.81;4946735;28;20058;-66
2022/08/06 01:44:42;;;;;;;6.32;3.47;;;20.30;82.60;;;19.58;100.00;96357.75;4913905;28;20110;-65
2022/08/06 01:47:10;;;;;;;5.00;3.42;;;20.40;82.70;;;19.63;100.00;96357.03;4928683;28;20063;-66
2022/08/06 01:49:36;;;;;;;4.78;3.45;;;20.50;82.50;;;19.64;100.00;96369.31;4914875;28;20039;-65
2022/08/06 01:52:03;;;;;;;6.65;3.70;;;20.40;82.80;;;19.62;100.00;96366.09;4929045;28;20138;-65
2022/08/06 01:54:29;;;;;;;6.45;3.80;;;20.40;82.60;;;19.64;100.00;96377.34;4930137;28;20035;-66
2022/08/06 01:56:56;;;;;;;5.22;3.70;;;20.40;82.80;;;19.68;100.00;96381.13;4946320;28;20161;-66
2022/08/06 01:59:24;;;;;;;5.30;3.70;;;20.50;82.70;;;19.69;100.00;96380.09;4914741;28;20387;-66
2022/08/06 02:01:53;;;;;;;5.15;3.65;;;20.50;82.50;;;19.69;100.00;96382.75;4929264;28;20063;-66
2022/08/06 02:04:19;;;;;;;4.95;4.00;;;20.50;82.60;;;19.69;100.00;96374.75;4945645;28;20979;-66
2022/08/06 02:06:45;;;;;;;4.80;4.13;;;20.50;82.80;;;19.68;100.00;96373.13;4961292;28;20078;-66
2022/08/06 02:09:20;;;;;;;7.65;4.53;;;20.50;82.70;;;19.67;100.00;96375.00;4930357;28;20031;-66
2022/08/06 02:11:56;;;;;;;5.43;4.20;;;20.40;82.80;;;19.64;100.00;96380.00;4912671;28;20036;-66
2022/08/06 02:14:22;;;;;;;6.25;3.67;;;20.40;83.10;;;19.63;100.00;96373.84;4943564;28;20447;-66
2022/08/06 02:16:48;;;;;;;5.45;3.47;;;20.40;82.90;;;19.59;100.00;96386.06;4964918;28;20452;-66
2022/08/06 02:19:14;;;;;;;5.43;3.85;;;20.30;83.20;;;19.60;100.00;96378.88;4949063;28;20122;-65
2022/08/06 02:21:42;;;;;;;8.23;4.45;;;20.40;83.10;;;19.57;100.00;96374.81;4958011;28;20475;-66
2022/08/06 02:24:08;;;;;;;6.03;3.83;;;20.30;82.80;;;19.55;100.00;96375.06;4949302;28;20035;-67
2022/08/06 02:26:35;;;;;;;7.93;4.03;;;20.30;83.20;;;19.55;100.00;96380.41;4946123;28;20125;-66
2022/08/06 02:29:04;;;;;;;7.53;4.35;;;20.30;83.00;;;19.51;100.00;96373.09;4918928;29;20043;-66
2022/08/06 02:31:30;;;;;;;5.07;4.07;;;20.30;82.80;;;19.51;100.00;96376.56;4960567;28;20112;-66
2022/08/06 02:33:55;;;;;;;8.18;4.57;;;20.40;82.60;;;19.51;100.00;96371.22;4912068;28;20130;-66
2022/08/06 02:36:38;;;;;;;5.97;4.47;;;20.30;82.80;;;19.51;100.00;96381.91;4943116;28;20114;-65
2022/08/06 02:39:11;;;;;;;7.00;4.00;;;20.20;82.80;;;19.47;100.00;96370.09;4960418;28;20043;-66
2022/08/06 02:41:53;;;;;;;5.93;4.70;;;20.30;83.10;;;19.49;100.00;96386.66;4928136;28;20054;-66
2022/08/06 02:44:40;;;;;;;6.55;4.57;;;20.20;83.20;;;19.49;100.00;96377.84;4930717;28;20384;-66
2022/08/06 02:47:31;;;;;;;8.10;4.97;;;20.30;83.00;;;19.50;100.00;96374.13;4917411;28;20597;-66
2022/08/06 02:49:59;;;;;;;8.85;5.60;;;20.30;83.30;;;19.50;100.00;96374.13;4942829;28;20557;-66
2022/08/06 02:52:41;;;;;;;7.50;5.38;;;20.30;83.10;;;19.53;100.00;96385.16;4943925;28;20067;-66
2022/08/06 02:55:16;;;;;;;8.55;5.93;;;20.40;83.10;;;19.53;100.00;96374.50;4962136;28;20400;-66
2022/08/06 02:57:56;;;;;;;10.05;8.80;;;20.30;83.50;;;19.52;100.00;96372.84;4913407;28;20616;-67
2022/08/06 03:00:22;;;;;;;12.10;10.00;;;20.30;83.50;;;19.52;100.00;96383.50;4946274;28;20035;-66
2022/08/06 03:02:48;;;;;;;13.30;8.35;;;20.40;83.60;;;19.53;100.00;96378.97;4912388;28;20055;-66
2022/08/06 03:05:17;;;;;;;9.85;7.75;;;20.30;83.60;;;19.53;100.00;96368.31;4945171;28;20372;-66
2022/08/06 03:07:43;;;;;;;9.63;7.93;;;20.20;84.00;;;19.51;100.00;96371.22;4927273;28;20035;-67
2022/08/06 03:10:08;;;;;;;10.55;8.20;;;20.30;83.90;;;19.48;100.00;96377.03;4925727;28;20142;-66
2022/08/06 03:12:35;;;;;;;13.88;10.32;;;20.20;84.10;;;19.47;100.00;96379.94;4944092;28;20414;-67
2022/08/06 03:15:02;;;;;;;14.38;10.57;;;20.20;84.30;;;19.44;100.00;96373.19;4927940;28;20039;-66
2022/08/06 03:17:28;;;;;;;10.20;8.13;;;20.20;84.00;;;19.45;100.00;96382.81;4946148;28;20443;-65
2022/08/06 03:19:53;;;;;;;14.38;11.32;;;20.30;84.10;;;19.45;100.00;96377.50;4941958;28;20082;-66
2022/08/06 03:22:19;;;;;;;23.98;21.23;;;20.40;83.80;;;19.50;100.00;96380.28;4928783;28;20059;-66
2022/08/06 03:24:45;;;;;;;16.33;13.48;;;20.50;83.60;;;19.53;100.00;96390.50;4912774;28;20051;-66
2022/08/06 03:27:11;;;;;;;11.25;9.93;;;20.60;83.60;;;19.56;100.00;96392.69;4913570;28;20503;-65
2022/08/06 03:29:38;;;;;;;13.10;11.80;;;20.50;83.20;;;19.58;100.00;96387.09;4945872;28;20450;-66
2022/08/06 03:32:03;;;;;;;18.05;15.32;;;20.50;82.90;;;19.60;100.00;96385.00;4940989;28;20054;-66
2022/08/06 03:34:29;;;;;;;12.65;11.27;;;20.60;82.80;;;19.63;100.00;96389.88;4944069;28;20039;-66
2022/08/06 03:36:56;;;;;;;11.27;9.98;;;20.60;82.80;;;19.65;100.00;96392.28;4945818;28;20083;-66
2022/08/06 03:39:21;;;;;;;10.85;9.68;;;20.60;82.50;;;19.67;100.00;96400.88;4925996;28;20087;-67
2022/08/06 03:41:47;;;;;;;11.60;10.05;;;20.60;82.30;;;19.67;100.00;96406.22;4942701;28;20074;-66
2022/08/06 03:44:14;;;;;;;10.82;9.25;;;20.50;82.40;;;19.64;100.00;96407.50;4918912;29;20046;-66
2022/08/06 03:47:16;;;;;;;10.45;8.88;;;20.50;82.00;;;19.63;100.00;96402.41;4920288;28;20059;-66
2022/08/06 03:49:48;;;;;;;9.73;8.40;;;20.50;81.70;;;19.57;100.00;96409.50;4949004;28;20035;-66
2022/08/06 03:52:17;;;;;;;9.18;7.88;;;20.40;81.20;;;19.48;100.00;96417.06;4932609;28;20032;-66
2022/08/06 03:54:47;;;;;;;9.37;7.60;;;20.30;80.70;;;19.44;100.00;96413.22;4926512;29;20694;-65
2022/08/06 03:57:17;;;;;;;12.55;9.77;;;20.20;80.80;;;19.36;100.00;96421.59;4933982;28;20399;-67
2022/08/06 03:59:45;;;;;;;11.55;8.63;;;20.10;80.60;;;19.29;100.00;96426.28;4954363;28;20039;-66
2022/08/06 04:02:12;;;;;;;14.73;8.48;;;20.10;80.70;;;19.26;100.00;96424.88;4931822;28;20043;-67
2022/08/06 04:04:38;;;;;;;9.30;7.68;;;20.10;80.90;;;19.20;100.00;96433.81;4939220;29;20130;-67
2022/08/06 04:07:03;;;;;;;10.50;7.88;;;20.10;80.60;;;19.16;100.00;96438.00;4934404;28;20371;-66
2022/08/06 04:09:31;;;;;;;18.33;14.40;;;20.00;80.80;;;19.13;100.00;96437.66;4951245;28;20479;-67
2022/08/06 04:11:56;;;;;;;11.80;10.10;;;19.90;81.10;;;19.10;100.00;96438.94;4967125;28;20210;-66
2022/08/06 04:14:22;;;;;;;13.15;10.45;;;19.90;80.80;;;19.10;100.00;96444.28;4937129;29;20114;-67
2022/08/06 04:16:49;;;;;;;11.98;8.57;;;20.00;81.10;;;19.09;100.00;96449.84;4962646;28;20091;-66
2022/08/06 04:19:15;;;;;;;10.98;7.65;;;19.90;80.90;;;19.04;100.00;96444.41;4947257;28;20410;-66
2022/08/06 04:21:41;;;;;;;8.65;7.28;;;19.80;80.90;;;19.02;100.00;96441.16;4920065;29;20039;-67
2022/08/06 04:24:06;;;;;;;8.50;7.53;;;19.90;80.40;;;18.96;100.00;96454.34;4938578;28;20054;-66
2022/08/06 04:26:32;;;;;;;7.78;6.88;;;19.80;80.60;;;18.96;100.00;96446.38;4968898;28;20037;-66
2022/08/06 04:28:58;;;;;;;7.72;6.75;;;19.80;80.60;;;18.93;100.00;96459.34;4938900;28;20043;-66
2022/08/06 04:31:26;;;;;;;10.23;6.80;;;19.80;80.70;;;18.87;100.00;96461.09;4972226;28;20098;-66
2022/08/06 04:33:52;;;;;;;7.18;6.00;;;19.70;80.20;;;18.84;100.00;96468.75;4938032;28;20032;-67
2022/08/06 04:36:18;;;;;;;7.50;6.50;;;19.70;80.20;;;18.81;100.00;96478.03;4935866;28;20042;-65
2022/08/06 04:38:43;;;;;;;7.38;6.30;;;19.70;80.20;;;18.78;100.00;96473.13;4958884;28;20076;-70
2022/08/06 04:41:09;;;;;;;8.00;6.03;;;19.70;80.20;;;18.77;100.00;96487.50;4936477;28;20074;-69
2022/08/06 04:43:35;;;;;;;6.47;5.45;;;19.60;80.30;;;18.74;100.00;96487.97;4948143;28;20051;-69
2022/08/06 04:46:01;;;;;;;9.02;8.05;;;19.60;79.70;;;18.70;100.00;96492.13;4956636;28;20066;-68
2022/08/06 04:48:26;;;;;;;7.10;5.50;;;19.50;80.10;;;18.67;100.00;96493.41;4924336;28;20078;-70
2022/08/06 04:50:52;;;;;;;9.45;5.45;;;19.60;79.80;;;18.66;100.00;96496.31;4924351;29;20027;-69
2022/08/06 04:53:19;;;;;;;7.28;6.18;;;19.60;80.10;;;18.59;100.00;96503.56;4940679;29;20086;-70
2022/08/06 04:55:45;;;;;;;7.95;5.60;;;19.40;79.90;;;18.56;100.00;96504.03;4908227;28;20120;-70
2022/08/06 04:58:13;;;;;;;7.60;5.93;;;19.40;79.90;;;18.48;100.00;96499.03;4939342;29;20442;-70
2022/08/06 05:00:42;;;;;;;8.20;4.95;;;19.20;79.40;;;18.44;100.00;96508.53;4964699;28;20599;-70
2022/08/06 05:03:08;;;;;;;5.68;4.95;;;19.20;79.10;;;18.38;100.00;96504.09;4940646;28;20030;-69
2022/08/06 05:05:50;;;;;;;37.83;29.25;;;19.20;79.50;;;18.36;100.00;96515.81;4947379;28;20070;-69
2022/08/06 05:08:16;;;;;;;6.30;5.25;;;19.30;79.30;;;18.27;100.00;96506.50;4937900;28;20110;-71
2022/08/06 05:11:12;;;;;;;7.03;5.30;;;19.00;77.90;;;18.22;100.00;96517.03;4960316;28;20106;-71
2022/08/06 05:13:38;;;;;;;6.60;4.03;;;19.00;78.30;;;18.14;100.00;96517.34;4919335;29;20032;-71
2022/08/06 05:16:08;;;;;;;7.03;5.05;;;18.90;78.00;;;18.13;100.00;96507.75;4917662;28;20043;-70
2022/08/06 05:18:46;;;;;;;5.30;3.60;;;19.00;77.60;;;18.11;100.00;96523.13;4936687;28;20050;-69
2022/08/06 05:21:15;;;;;;;5.50;3.95;;;19.00;77.50;;;18.09;100.00;96532.34;4959880;28;20577;-71
2022/08/06 05:23:53;;;;;;;6.57;3.78;;;19.00;77.30;;;18.08;100.00;96539.53;4922009;29;20039;-70
2022/08/06 05:26:19;;;;;;;4.53;3.50;;;19.00;77.40;;;18.03;100.00;96545.53;4937308;29;20027;-70
2022/08/06 05:28:45;;;;;;;5.68;3.47;;;19.00;77.40;;;18.00;100.00;96545.19;4923829;28;20022;-70
2022/08/06 05:31:10;;;;;;;4.38;3.35;;;18.90;77.30;;;17.96;100.00;96544.81;4955960;28;20075;-71
2022/08/06 05:33:38;;;;;;;5.03;3.65;;;18.90;77.80;;;17.91;99.20;96552.66;4936715;29;20062;-70
2022/08/06 05:36:08;;;;;;;4.20;3.40;;;18.70;77.30;;;17.92;99.92;96545.50;4936399;28;20046;-70
2022/08/06 05:38:36;;;;;;;4.80;3.30;;;18.90;77.40;;;17.84;98.28;96549.25;4952032;28;20150;-70
2022/08/06 05:41:08;;;;;;;4.07;3.00;;;18.60;76.30;;;17.82;97.58;96555.84;4953476;28;20115;-70
2022/08/06 05:43:35;;;;;;;4.53;2.97;;;18.70;76.50;;;17.78;98.13;96546.69;4956130;28;20066;-70
2022/08/06 05:46:07;;;;;;;5.43;2.80;;;18.70;76.30;;;17.75;96.49;96548.75;4920418;28;20071;-70
2022/08/06 05:48:37;;;;;;;4.57;3.03;;;18.60;75.20;;;17.71;96.26;96550.25;4905897;29;20063;-70
2022/08/06 05:51:09;;;;;;;5.65;3.10;;;18.60;75.70;;;17.68;97.21;96548.03;4921749;29;20035;-70
2022/08/06 05:53:41;;;;;;;4.50;2.97;;;18.60;75.80;;;17.68;96.99;96564.00;4905688;29;20094;-70
2022/08/06 05:56:10;;;;;;;5.07;3.10;;;18.60;76.00;;;17.64;96.05;96567.25;4944110;28;20035;-69
2022/08/06 05:58:42;;;;;;;4.18;3.30;;;18.50;75.70;;;17.60;96.71;96560.78;4936403;29;20035;-70
2022/08/06 06:01:08;;;;;;;4.60;3.08;;;18.60;76.40;;;17.60;97.76;96568.75;4936613;28;20050;-70
2022/08/06 06:03:35;;;;;;;4.32;3.85;;;18.70;76.80;;;17.59;97.13;96581.22;4941095;28;20035;-70
2022/08/06 06:06:01;;;;;;;5.05;3.90;;;18.60;76.40;;;17.58;98.06;96587.59;4919576;28;20049;-70
2022/08/06 06:08:27;;;;;;;5.82;3.60;;;18.60;76.40;;;17.60;98.03;96590.03;4949795;28;20039;-71
2022/08/06 06:10:53;;;;;;;6.40;5.03;;;18.60;76.20;;;17.61;97.96;96600.44;4901516;29;20455;-71
2022/08/06 06:13:21;;;;;;;4.70;3.88;;;18.70;76.40;;;17.61;97.17;96600.44;4917424;29;20036;-70
2022/08/06 06:16:16;;;;;;;4.50;3.65;;;18.60;76.10;;;17.61;98.11;96603.09;4901011;28;20055;-71
2022/08/06 06:18:49;;;;;;;4.72;3.55;;;18.70;76.10;;;17.59;98.11;96602.53;4931506;29;20667;-73
2022/08/06 06:21:29;;;;;;;4.95;3.67;;;18.60;76.30;;;17.58;97.60;96605.41;4952038;28;20126;-70
2022/08/06 06:24:00;;;;;;;;;;;18.60;75.90;;;17.54;97.79;96609.53;4952032;28;20106;-70
2022/08/06 06:26:32;;;;;;;;;;;18.60;76.40;;;17.50;98.39;96603.84;4933978;28;19922;-70
2022/08/06 06:30:02;;;;;;;8.32;3.80;;;18.50;76.70;;;17.53;99.04;96606.06;4947922;28;19925;-72
2022/08/06 06:32:48;;;;;;;6.60;3.58;;;18.60;76.90;;;17.55;98.49;96609.31;4927364;29;20048;-69
2022/08/06 06:35:23;;;;;;;5.95;3.83;;;18.60;77.00;;;17.56;98.48;96618.13;4911989;29;20115;-71
2022/08/06 06:38:41;;;;;;;4.68;4.10;;;18.60;76.70;;;17.53;98.69;96619.38;4941747;28;20234;-69
2022/08/06 06:41:17;;;;;;;6.38;5.32;;;18.60;76.50;;;17.52;98.61;96624.91;4944064;28;20031;-71
2022/08/06 06:44:02;;;;;;;5.85;4.75;;;18.60;76.70;;;17.49;98.41;96628.81;4949353;28;20606;-71
2022/08/06 06:46:35;;;;;;;8.93;4.40;;;18.50;76.50;;;17.46;98.91;96634.59;4948581;28;20059;-71
2022/08/06 06:49:22;;;;;;;6.18;5.10;;;18.60;76.90;;;17.45;99.18;96638.28;4948212;28;20039;-71
2022/08/06 06:51:52;;;;;;;5.95;5.10;;;18.50;76.90;;;17.44;100.00;96632.16;4917505;28;20035;-68
2022/08/06 06:54:26;;;;;;;8.52;6.05;;;18.60;77.90;;;17.47;99.08;96636.22;4966134;28;20216;-67
2022/08/06 06:56:53;;;;;;;6.18;5.50;;;18.60;76.90;;;17.45;99.46;96643.59;4932273;28;20039;-67
2022/08/06 06:59:24;;;;;;;7.68;6.10;;;18.60;77.40;;;17.46;99.26;96642.56;4947339;28;20085;-66
2022/08/06 07:01:50;;;;;;;15.75;14.07;;;18.50;76.70;;;17.49;99.38;96638.66;4960758;28;20043;-65
2022/08/06 07:04:17;;;;;;;8.02;6.05;;;18.60;77.60;;;17.50;99.57;96634.97;4949919;28;20058;-69
2022/08/06 07:06:46;;;;;;;8.10;6.50;;;18.60;77.30;;;17.48;99.71;96635.19;4934216;28;20039;-66
2022/08/06 07:09:17;;;;;;;8.20;7.05;;;18.50;77.30;;;17.49;99.59;96639.47;4948451;28;20522;-69
2022/08/06 07:11:46;;;;;;;8.82;7.18;;;18.60;77.40;;;17.47;100.00;96638.88;4932075;29;20110;-67
2022/08/06 07:14:12;;;;;;;8.45;6.85;;;18.60;78.10;;;17.51;100.00;96637.41;4946560;28;20042;-68
2022/08/06 07:16:37;;;;;;;8.63;7.63;;;18.60;77.90;;;17.53;100.00;96643.31;4913510;29;20055;-65
2022/08/06 07:19:05;;;;;;;8.38;7.28;;;18.60;77.40;;;17.54;100.00;96642.28;4948728;28;20066;-69
2022/08/06 07:21:30;;;;;;;12.45;7.95;;;18.70;77.70;;;17.57;100.00;96641.03;4948459;28;20558;-69
2022/08/06 07:23:56;;;;;;;9.23;8.30;;;18.70;78.10;;;17.62;100.00;96641.16;4932005;28;20054;-69
2022/08/06 07:26:23;;;;;;;9.77;8.77;;;18.80;77.10;;;17.60;100.00;96641.38;4947521;28;20036;-71
2022/08/06 07:28:49;;;;;;;11.50;9.00;;;18.70;77.30;;;17.58;100.00;96648.78;4916781;28;20043;-68
2022/08/06 07:31:15;;;;;;;10.10;9.02;;;18.60;77.60;;;17.54;100.00;96649.44;4947590;28;20032;-69
2022/08/06 07:33:43;;;;;;;10.00;9.07;;;18.60;77.70;;;17.54;100.00;96650.25;4916654;29;20057;-66
2022/08/06 07:36:09;;;;;;;9.82;8.88;;;18.70;77.90;;;17.56;100.00;96658.81;4948576;28;20035;-67
2022/08/06 07:38:35;;;;;;;12.32;10.27;;;18.70;77.60;;;17.59;100.00;96649.59;4946858;28;20055;-67
2022/08/06 07:41:04;;;;;;;15.38;10.50;;;18.70;77.50;;;17.58;100.00;96659.41;4931363;29;20035;-68
2022/08/06 07:43:40;;;;;;;11.50;9.63;;;18.80;78.00;;;17.64;100.00;96661.19;4947749;28;20039;-66
2022/08/06 07:46:07;;;;;;;11.40;10.32;;;19.00;77.80;;;17.73;100.00;96667.09;4946615;28;20196;-67
2022/08/06 07:48:59;;;;;;;11.00;9.98;;;19.10;76.80;;;17.78;100.00;96666.44;4948454;28;20534;-66
2022/08/06 07:51:28;;;;;;;11.85;10.65;;;19.10;77.20;;;17.87;100.00;96663.25;4919882;29;20121;-66
2022/08/06 07:53:53;;;;;;;12.20;10.60;;;19.30;76.90;;;17.94;100.00;96668.53;4930092;28;20047;-69
2022/08/06 07:56:19;;;;;;;12.07;10.88;;;19.30;76.90;;;18.03;100.00;96668.00;4945922;28;20142;-69
2022/08/06 07:58:45;;;;;;;12.20;11.00;;;19.40;76.70;;;18.07;100.00;96663.03;4929102;28;20035;-69
2022/08/06 08:01:11;;;;;;;13.43;12.15;;;19.50;76.70;;;18.14;100.00;96670.97;4937896;28;20123;-66
2022/08/06 08:06:22;;;;;;;13.85;12.40;;;19.50;75.80;;;18.27;100.00;96673.47;4919609;28;20169;-69
2022/08/06 08:09:18;;;;;;;13.57;12.23;;;19.70;75.40;;;18.34;100.00;96680.34;4913984;28;20274;-65
2022/08/06 08:11:45;;;;;;;12.75;11.45;;;19.70;75.30;;;18.40;99.41;96677.81;4947940;28;20043;-67
2022/08/06 08:14:13;;;;;;;13.48;12.07;;;19.80;75.10;;;18.47;99.71;96678.53;4934190;28;20051;-67
2022/08/06 08:16:40;;;;;;;12.85;11.38;;;19.80;75.00;;;18.48;98.60;96674.84;4914941;29;20082;-67
2022/08/06 08:19:31;;;;;;;14.25;12.80;;;19.80;75.00;;;18.54;97.25;96669.41;4946233;28;20039;-67
2022/08/06 08:21:59;;;;;;;14.25;12.85;;;19.90;74.30;;;18.56;97.56;96682.56;4960953;28;20038;-66
2022/08/06 08:24:26;;;;;;;16.05;12.68;;;19.80;74.40;;;18.59;97.95;96682.09;4944080;28;20031;-67
2022/08/06 08:26:52;;;;;;;15.23;12.82;;;20.00;74.50;;;18.65;97.64;96687.34;4933678;29;20023;-67
2022/08/06 08:29:18;;;;;;;12.50;11.30;;;20.00;74.60;;;18.72;97.63;96687.25;4952214;28;20415;-66
2022/08/06 08:31:44;;;;;;;13.68;11.20;;;20.10;74.00;;;18.78;97.34;96681.03;4945813;28;20118;-67
2022/08/06 08:34:11;;;;;;;14.98;12.35;;;20.30;73.80;;;18.83;96.59;96683.03;4933087;28;20050;-67
2022/08/06 08:36:40;;;;;;;12.77;11.48;;;20.30;73.00;;;18.85;96.52;96687.09;4934183;29;20035;-66
2022/08/06 08:39:06;;;;;;;14.13;11.68;;;20.10;73.10;;;18.87;95.92;96682.34;4954129;28;20437;-67
2022/08/06 08:42:09;;;;;;;13.93;12.40;;;20.20;73.10;;;18.88;95.94;96691.16;4952131;28;20038;-67
2022/08/06 08:44:35;;;;;;;12.07;10.88;;;20.20;73.70;;;18.89;95.96;96698.94;4932047;28;20038;-67
2022/08/06 08:47:02;;;;;;;11.95;9.98;;;20.40;72.80;;;18.97;95.44;96695.94;4921416;28;20570;-67
2022/08/06 08:49:50;;;;;;;10.43;9.43;;;20.50;72.80;;;19.07;94.95;96694.56;4928993;29;20043;-69
2022/08/06 08:52:38;;;;;;;11.07;9.98;;;20.60;72.30;;;19.15;94.51;96707.56;4935854;28;20042;-68
2022/08/06 08:55:06;;;;;;;10.85;9.73;;;20.60;71.90;;;19.19;94.24;96698.88;4948437;28;20062;-68
2022/08/06 08:57:33;;;;;;;9.80;8.52;;;20.60;72.00;;;19.25;94.76;96705.19;4947696;28;20047;-68
2022/08/06 09:00:00;;;;;;;10.68;8.85;;;20.60;72.10;;;19.27;93.75;96706.56;4947425;28;20407;-68
2022/08/06 09:02:26;;;;;;;8.82;7.93;;;20.70;71.70;;;19.31;92.91;96714.94;4946772;28;20031;-68
2022/08/06 09:04:52;;;;;;;10.85;8.18;;;20.70;71.30;;;19.28;92.43;96707.38;4920858;28;20039;-68
2022/08/06 09:07:18;;;;;;;9.07;8.10;;;20.60;71.20;;;19.25;92.43;96718.53;4949026;28;20134;-68
2022/08/06 09:09:44;;;;;;;8.10;7.13;;;20.60;71.40;;;19.27;92.88;96713.78;4929274;28;20036;-68
2022/08/06 09:12:10;;;;;;;9.93;8.93;;;20.70;71.80;;;19.34;93.25;96717.13;4950861;28;20080;-69
2022/08/06 09:14:36;;;;;;;12.88;11.40;;;20.80;71.90;;;19.38;92.18;96717.50;4934243;28;20083;-68
2022/08/06 09:17:03;;;;;;;8.65;7.75;;;20.70;71.40;;;19.40;92.21;96720.75;4966120;28;20035;-67
2022/08/06 09:19:29;;;;;;;7.68;6.97;;;20.80;71.30;;;19.43;92.34;96717.59;4951682;28;20039;-66
2022/08/06 09:21:56;;;;;;;8.95;7.65;;;20.80;71.30;;;19.45;91.38;96719.00;4918775;28;20759;-69
2022/08/06 09:24:23;;;;;;;7.75;7.00;;;20.90;71.00;;;19.50;91.19;96711.13;4951218;28;20035;-70
2022/08/06 09:27:06;;;;;;;11.00;7.97;;;20.90;71.20;;;19.56;91.69;96720.91;4920177;29;20036;-71
2022/08/06 09:29:31;;;;;;;8.18;7.07;;;21.00;71.00;;;19.61;91.77;96722.06;4950815;28;20043;-68
2022/08/06 09:31:57;;;;;;;7.65;6.40;;;21.10;70.60;;;19.67;91.44;96723.81;4934537;28;20079;-67
2022/08/06 09:34:37;;;;;;;7.85;6.60;;;21.20;70.60;;;19.71;91.09;96723.16;4966785;28;20134;-66
2022/08/06 09:37:03;;;;;;;7.22;6.15;;;21.20;70.10;;;19.75;90.41;96726.16;4932905;28;20483;-67
2022/08/06 09:39:41;;;;;;;7.03;6.32;;;21.30;69.90;;;19.74;89.47;96732.56;4953130;28;20799;-66
2022/08/06 09:42:07;;;;;;;7.40;6.28;;;21.10;69.70;;;19.76;90.32;96735.78;4948462;28;20061;-65
2022/08/06 09:44:33;;;;;;;6.13;5.57;;;21.20;70.10;;;19.78;90.28;96734.53;4947242;28;20032;-66
2022/08/06 09:47:00;;;;;;;6.43;5.72;;;21.30;69.90;;;19.80;90.22;96742.28;4934777;29;20045;-65
2022/08/06 09:49:26;;;;;;;9.65;6.22;;;21.30;70.00;;;19.80;90.54;96743.09;4951291;28;20039;-64
2022/08/06 09:52:09;;;;;;;6.93;6.32;;;21.20;70.50;;;19.80;90.88;96743.09;4930508;28;20039;-65
2022/08/06 09:54:38;;;;;;;8.20;7.30;;;21.10;70.80;;;19.80;90.76;96736.97;4948404;28;20090;-66
2022/08/06 09:57:03;;;;;;;7.53;6.80;;;21.20;70.60;;;19.83;90.79;96736.50;4948612;28;20399;-65
2022/08/06 09:59:29;;;;;;;7.80;7.00;;;21.30;70.10;;;19.84;90.13;96746.13;4949459;28;20054;-65
2022/08/06 10:01:55;;;;;;;7.30;6.55;;;21.30;69.80;;;19.86;89.93;96746.69;4917428;28;20410;-66
2022/08/06 10:04:26;;;;;;;7.88;7.03;;;21.30;69.90;;;19.89;90.07;96747.03;4950243;28;20069;-64
2022/08/06 10:06:58;;;;;;;7.65;6.85;;;21.30;70.10;;;19.90;88.52;96742.53;4932806;28;20031;-67
2022/08/06 10:09:24;;;;;;;7.18;6.47;;;21.30;69.50;;;19.88;88.79;96750.75;4949636;28;20043;-67
2022/08/06 10:11:50;;;;;;;7.53;6.80;;;21.20;69.80;;;19.89;88.48;96735.56;4944158;28;20086;-68
2022/08/06 10:14:33;;;;;;;8.63;7.07;;;21.20;69.50;;;19.88;87.79;96744.59;4965090;28;20827;-68
2022/08/06 10:17:11;;;;;;;8.57;7.78;;;21.10;69.40;;;19.86;87.92;96736.84;4918005;28;20047;-68
2022/08/06 10:19:46;;;;;;;15.43;12.80;;;21.20;69.60;;;19.85;88.86;96745.06;4961062;28;20396;-68
2022/08/06 10:22:19;;;;;;;7.97;7.18;;;21.30;70.30;;;19.88;89.72;96739.28;4934555;28;20046;-67
2022/08/06 10:24:46;;;;;;;11.13;7.60;;;21.30;70.00;;;19.94;89.12;96743.69;4930609;28;20146;-67
2022/08/06 10:27:21;;;;;;;9.43;7.40;;;21.40;69.60;;;19.98;88.43;96744.88;4948724;28;20058;-67
2022/08/06 10:29:54;;;;;;;8.27;7.43;;;21.40;69.20;;;20.02;88.46;96751.34;4911974;28;20071;-68